ELY315 LLBG-EGLL
Flight info
| Callsign | ELY315 |
|---|---|
| Flight time | N/A |
| Altitude | 38000 |
| Route | SUVAS N128 TEZAK L324 SAFTA DCT MAROS DCT LUTIG DCT BENEM UN127 RIKSO DCT DISOR/N0481F400 DCT LONTA UL608 DOLEV DCT ERKIR DCT BABEG DCT LIRSU DCT DENUT L608 LOGAN LOGAN2H |
| Aircraft | B789/H-VGDW/C |
Departure
| Time | 2026-05-08 07:21 |
|---|---|
| Airport | Ben Gurion International Airport (LLBG) |
Arrival
| Time | N/A |
|---|---|
| Airport | London Heathrow Airport (EGLL) |
| Time | Latitude | Longitude | Altitude | Speed | Heading |
|---|---|---|---|---|---|
| 2026-05-08 07:05 | 32.00427 | 34.87620 | 148 ft | 0 kts | 237° |
| 2026-05-08 07:12 | 32.00429 | 34.87624 | 148 ft | 3 kts | 237° |
| 2026-05-08 07:12 | 32.00444 | 34.87651 | 148 ft | 4 kts | 237° |
| 2026-05-08 07:12 | 32.00456 | 34.87673 | 148 ft | 4 kts | 243° |
| 2026-05-08 07:12 | 32.00460 | 34.87690 | 148 ft | 3 kts | 294° |
| 2026-05-08 07:13 | 32.00448 | 34.87706 | 148 ft | 2 kts | 334° |
| 2026-05-08 07:13 | 32.00444 | 34.87709 | 148 ft | 4 kts | 346° |
| 2026-05-08 07:13 | 32.00468 | 34.87702 | 148 ft | 2 kts | 346° |
| 2026-05-08 07:13 | 32.00469 | 34.87702 | 148 ft | 0 kts | 346° |
| 2026-05-08 07:14 | 32.00478 | 34.87699 | 148 ft | 5 kts | 346° |
| 2026-05-08 07:14 | 32.00543 | 34.87686 | 148 ft | 13 kts | 6° |
| 2026-05-08 07:14 | 32.00625 | 34.87751 | 148 ft | 13 kts | 85° |
| 2026-05-08 07:15 | 32.00593 | 34.87849 | 148 ft | 13 kts | 117° |
| 2026-05-08 07:15 | 32.00621 | 34.87938 | 148 ft | 13 kts | 38° |
| 2026-05-08 07:15 | 32.00707 | 34.88002 | 148 ft | 16 kts | 32° |
| 2026-05-08 07:15 | 32.00819 | 34.88085 | 148 ft | 22 kts | 32° |
| 2026-05-08 07:16 | 32.00962 | 34.88188 | 148 ft | 25 kts | 31° |
| 2026-05-08 07:16 | 32.01111 | 34.88293 | 148 ft | 25 kts | 31° |
| 2026-05-08 07:16 | 32.01255 | 34.88401 | 148 ft | 24 kts | 37° |
| 2026-05-08 07:16 | 32.01374 | 34.88537 | 148 ft | 24 kts | 50° |
| 2026-05-08 07:17 | 32.01460 | 34.88705 | 148 ft | 24 kts | 67° |
| 2026-05-08 07:17 | 32.01505 | 34.88894 | 148 ft | 24 kts | 79° |
| 2026-05-08 07:17 | 32.01534 | 34.89089 | 148 ft | 24 kts | 79° |
| 2026-05-08 07:17 | 32.01565 | 34.89287 | 148 ft | 25 kts | 79° |
| 2026-05-08 07:18 | 32.01595 | 34.89488 | 148 ft | 25 kts | 80° |
| 2026-05-08 07:18 | 32.01635 | 34.89663 | 148 ft | 21 kts | 47° |
| 2026-05-08 07:18 | 32.01755 | 34.89754 | 148 ft | 21 kts | 30° |
| 2026-05-08 07:18 | 32.01835 | 34.89742 | 148 ft | 10 kts | 292° |
| 2026-05-08 07:19 | 32.01834 | 34.89676 | 148 ft | 0 kts | 260° |
| 2026-05-08 07:19 | 32.01834 | 34.89673 | 148 ft | 0 kts | 260° |
| 2026-05-08 07:19 | 32.01834 | 34.89672 | 148 ft | 0 kts | 260° |
| 2026-05-08 07:19 | 32.01833 | 34.89670 | 148 ft | 0 kts | 260° |
| 2026-05-08 07:20 | 32.01833 | 34.89668 | 148 ft | 1 kts | 260° |
| 2026-05-08 07:20 | 32.01815 | 34.89549 | 148 ft | 42 kts | 260° |
| 2026-05-08 07:20 | 32.01719 | 34.88914 | 148 ft | 113 kts | 259° |
| 2026-05-08 07:20 | 32.01545 | 34.87782 | 149 ft | 167 kts | 259° |
| 2026-05-08 07:21 | 32.01321 | 34.86325 | 444 ft | 190 kts | 259° |
| 2026-05-08 07:21 | 32.01054 | 34.84765 | 1044 ft | 195 kts | 258° |
| 2026-05-08 07:21 | 32.00729 | 34.83237 | 1857 ft | 189 kts | 258° |
| 2026-05-08 07:21 | 32.00412 | 34.81757 | 2617 ft | 188 kts | 259° |
| 2026-05-08 07:22 | 32.00100 | 34.80263 | 3356 ft | 189 kts | 259° |
| 2026-05-08 07:22 | 31.99789 | 34.78744 | 3866 ft | 198 kts | 259° |
| 2026-05-08 07:22 | 31.99455 | 34.77105 | 4272 ft | 215 kts | 259° |
| 2026-05-08 07:22 | 31.99181 | 34.75307 | 4647 ft | 231 kts | 269° |
| 2026-05-08 07:23 | 31.99543 | 34.73441 | 4999 ft | 241 kts | 292° |
| 2026-05-08 07:23 | 32.00164 | 34.71545 | 5511 ft | 252 kts | 293° |
| 2026-05-08 07:23 | 32.00800 | 34.69569 | 6021 ft | 262 kts | 292° |
| 2026-05-08 07:23 | 32.01444 | 34.67524 | 6599 ft | 269 kts | 292° |
| 2026-05-08 07:24 | 32.02093 | 34.65430 | 7218 ft | 274 kts | 291° |
| 2026-05-08 07:24 | 32.02749 | 34.63289 | 7762 ft | 282 kts | 290° |
| 2026-05-08 07:24 | 32.03297 | 34.61008 | 8171 ft | 296 kts | 285° |
| 2026-05-08 07:24 | 32.03815 | 34.58623 | 8632 ft | 306 kts | 285° |
| 2026-05-08 07:25 | 32.04327 | 34.56274 | 9177 ft | 312 kts | 285° |
| 2026-05-08 07:25 | 32.04873 | 34.53785 | 9833 ft | 315 kts | 285° |
| 2026-05-08 07:25 | 32.05990 | 34.48755 | 11055 ft | 324 kts | 285° |
| 2026-05-08 07:26 | 32.06574 | 34.46138 | 11419 ft | 336 kts | 285° |
| 2026-05-08 07:26 | 32.07169 | 34.43473 | 11802 ft | 346 kts | 285° |
| 2026-05-08 07:26 | 32.07796 | 34.40661 | 12301 ft | 353 kts | 285° |
| 2026-05-08 07:26 | 32.08425 | 34.37836 | 12823 ft | 359 kts | 285° |
| 2026-05-08 07:27 | 32.09063 | 34.34968 | 13356 ft | 364 kts | 285° |
| 2026-05-08 07:27 | 32.09705 | 34.32076 | 13916 ft | 368 kts | 285° |
| 2026-05-08 07:27 | 32.10348 | 34.29181 | 14482 ft | 371 kts | 285° |
| 2026-05-08 07:27 | 32.11012 | 34.26185 | 15074 ft | 374 kts | 285° |
| 2026-05-08 07:28 | 32.11667 | 34.23229 | 15690 ft | 375 kts | 285° |
| 2026-05-08 07:28 | 32.12331 | 34.20229 | 16299 ft | 377 kts | 285° |
| 2026-05-08 07:28 | 32.12996 | 34.17223 | 16894 ft | 380 kts | 285° |
| 2026-05-08 07:28 | 32.13662 | 34.14203 | 17491 ft | 382 kts | 285° |
| 2026-05-08 07:29 | 32.14334 | 34.11152 | 18069 ft | 385 kts | 285° |
| 2026-05-08 07:29 | 32.15011 | 34.08082 | 18606 ft | 389 kts | 285° |
| 2026-05-08 07:29 | 32.15696 | 34.04981 | 19120 ft | 393 kts | 286° |
| 2026-05-08 07:29 | 32.16654 | 34.01950 | 19601 ft | 396 kts | 296° |
| 2026-05-08 07:30 | 32.17982 | 33.99093 | 20171 ft | 398 kts | 300° |
| 2026-05-08 07:30 | 32.19395 | 33.96266 | 20697 ft | 402 kts | 301° |
| 2026-05-08 07:30 | 32.20866 | 33.93445 | 21211 ft | 405 kts | 303° |
| 2026-05-08 07:30 | 32.22407 | 33.90652 | 21702 ft | 408 kts | 304° |
| 2026-05-08 07:31 | 32.24007 | 33.87863 | 22182 ft | 412 kts | 305° |
| 2026-05-08 07:31 | 32.25646 | 33.85070 | 22661 ft | 415 kts | 305° |
| 2026-05-08 07:31 | 32.27311 | 33.82267 | 23143 ft | 418 kts | 306° |
| 2026-05-08 07:31 | 32.28989 | 33.79459 | 23628 ft | 421 kts | 306° |
| 2026-05-08 07:32 | 32.30688 | 33.76620 | 24106 ft | 424 kts | 306° |
| 2026-05-08 07:32 | 32.32394 | 33.73771 | 24576 ft | 427 kts | 306° |
| 2026-05-08 07:32 | 32.34119 | 33.70892 | 25048 ft | 430 kts | 306° |
| 2026-05-08 07:32 | 32.35851 | 33.67998 | 25505 ft | 433 kts | 306° |
| 2026-05-08 07:33 | 32.37593 | 33.65088 | 25949 ft | 435 kts | 306° |
| 2026-05-08 07:33 | 32.39343 | 33.62163 | 26397 ft | 438 kts | 306° |
| 2026-05-08 07:33 | 32.41112 | 33.59200 | 26807 ft | 441 kts | 306° |
| 2026-05-08 07:33 | 32.42880 | 33.56239 | 27249 ft | 442 kts | 306° |
| 2026-05-08 07:34 | 32.44661 | 33.53254 | 27661 ft | 445 kts | 306° |
| 2026-05-08 07:34 | 32.46452 | 33.50248 | 28070 ft | 446 kts | 306° |
| 2026-05-08 07:34 | 32.48243 | 33.47240 | 28463 ft | 448 kts | 306° |
| 2026-05-08 07:34 | 32.50043 | 33.44218 | 28864 ft | 450 kts | 306° |
| 2026-05-08 07:35 | 32.51848 | 33.41184 | 29239 ft | 452 kts | 306° |
| 2026-05-08 07:35 | 32.53665 | 33.38126 | 29578 ft | 454 kts | 306° |
| 2026-05-08 07:35 | 32.55484 | 33.35063 | 29971 ft | 455 kts | 306° |
| 2026-05-08 07:35 | 32.57307 | 33.31988 | 30311 ft | 457 kts | 306° |
| 2026-05-08 07:36 | 32.59136 | 33.28901 | 30701 ft | 457 kts | 306° |
| 2026-05-08 07:36 | 32.60966 | 33.25812 | 31047 ft | 459 kts | 306° |
| 2026-05-08 07:36 | 32.62797 | 33.22716 | 31415 ft | 459 kts | 306° |
| 2026-05-08 07:36 | 32.64630 | 33.19617 | 31818 ft | 459 kts | 306° |
| 2026-05-08 07:37 | 32.66461 | 33.16518 | 32292 ft | 457 kts | 306° |
| 2026-05-08 07:37 | 32.68281 | 33.13434 | 32785 ft | 454 kts | 306° |
| 2026-05-08 07:37 | 32.70088 | 33.10371 | 33279 ft | 452 kts | 306° |
| 2026-05-08 07:37 | 32.71883 | 33.07323 | 33767 ft | 449 kts | 306° |
| 2026-05-08 07:38 | 32.73638 | 33.04340 | 34258 ft | 445 kts | 307° |
| 2026-05-08 07:38 | 32.75405 | 33.01336 | 34728 ft | 443 kts | 307° |
| 2026-05-08 07:38 | 32.77166 | 32.98342 | 35198 ft | 440 kts | 307° |
| 2026-05-08 07:38 | 32.78911 | 32.95371 | 35649 ft | 437 kts | 307° |
| 2026-05-08 07:39 | 32.80645 | 32.92417 | 36108 ft | 434 kts | 307° |
| 2026-05-08 07:39 | 32.81806 | 32.90437 | 36396 ft | 432 kts | 307° |
| 2026-05-08 07:39 | 32.83520 | 32.87513 | 36809 ft | 429 kts | 307° |
| 2026-05-08 07:39 | 32.85219 | 32.84613 | 37208 ft | 426 kts | 308° |
| 2026-05-08 07:40 | 32.87455 | 32.80792 | 37719 ft | 422 kts | 308° |
| 2026-05-08 07:40 | 32.89129 | 32.77931 | 37965 ft | 420 kts | 308° |
| 2026-05-08 07:40 | 32.90793 | 32.75083 | 38103 ft | 418 kts | 308° |
| 2026-05-08 07:41 | 32.93574 | 32.70321 | 38125 ft | 419 kts | 308° |
| 2026-05-08 07:41 | 32.96891 | 32.64631 | 38139 ft | 418 kts | 308° |
| 2026-05-08 07:42 | 33.00204 | 32.58942 | 38140 ft | 417 kts | 308° |
| 2026-05-08 07:42 | 33.03505 | 32.53263 | 38132 ft | 416 kts | 308° |
| 2026-05-08 07:43 | 33.06794 | 32.47589 | 38142 ft | 416 kts | 308° |
| 2026-05-08 07:43 | 33.10082 | 32.41912 | 38138 ft | 415 kts | 308° |
| 2026-05-08 07:44 | 33.13362 | 32.36246 | 38136 ft | 415 kts | 308° |
| 2026-05-08 07:44 | 33.16641 | 32.30570 | 38148 ft | 415 kts | 308° |
| 2026-05-08 07:45 | 33.19908 | 32.24897 | 38132 ft | 414 kts | 308° |
| 2026-05-08 07:45 | 33.23149 | 32.19263 | 38142 ft | 415 kts | 308° |
| 2026-05-08 07:46 | 33.26434 | 32.13554 | 38147 ft | 414 kts | 308° |
| 2026-05-08 07:46 | 33.29673 | 32.07918 | 38134 ft | 414 kts | 308° |
| 2026-05-08 07:47 | 33.32935 | 32.02228 | 38149 ft | 415 kts | 308° |
| 2026-05-08 07:47 | 33.36180 | 31.96549 | 38142 ft | 410 kts | 308° |
| 2026-05-08 07:48 | 33.39383 | 31.90944 | 38136 ft | 409 kts | 308° |
| 2026-05-08 07:48 | 33.42621 | 31.85271 | 38150 ft | 410 kts | 308° |
| 2026-05-08 07:49 | 33.46341 | 31.80208 | 38097 ft | 404 kts | 325° |
| 2026-05-08 07:49 | 33.50970 | 31.76381 | 38162 ft | 406 kts | 324° |
| 2026-05-08 07:50 | 33.55462 | 31.72304 | 38137 ft | 405 kts | 323° |
| 2026-05-08 07:50 | 33.59973 | 31.68264 | 38142 ft | 405 kts | 324° |
| 2026-05-08 07:51 | 33.64501 | 31.64250 | 38149 ft | 405 kts | 324° |
| 2026-05-08 07:51 | 33.69011 | 31.60264 | 38135 ft | 406 kts | 324° |
| 2026-05-08 07:52 | 33.73562 | 31.56244 | 38145 ft | 406 kts | 324° |
| 2026-05-08 07:52 | 33.78103 | 31.52228 | 38144 ft | 405 kts | 324° |
| 2026-05-08 07:53 | 33.82640 | 31.48212 | 38137 ft | 405 kts | 324° |
| 2026-05-08 07:53 | 33.87168 | 31.44197 | 38149 ft | 405 kts | 324° |
| 2026-05-08 07:54 | 33.91703 | 31.40172 | 38137 ft | 405 kts | 324° |
| 2026-05-08 07:54 | 33.96236 | 31.36156 | 38141 ft | 404 kts | 324° |
| 2026-05-08 07:55 | 34.00764 | 31.32138 | 38147 ft | 403 kts | 324° |